Alden, Michigan
Current Conditions -  °F | °C
As of 11:38 PM on Saturday 25 Oct 2014 (Local Time) from KACB Reporting Station
Clear Clear  
Wind Chill: 53°   Ceiling: Unl
Heat Index: 53°   Visibility: 10mi
Dew Point: 33°   Wind: 8mph
Humidity: 47%   Direction: 310°NW
Pressure: 29.81"   Gusts: 18mph
Location:  44.88°N, 85.28°W
Report Text: KACB 260338Z AUTO 31007G16KT 10SM CLR 12/01 A2981 RMK AO2 T01160007
Loading
Personal Weather Stations






























Interactive Weather Map
Tropical Storm Tracking
New forecast layout! Learn more

10-Day Weather Forecast

Advertisements
Track Severe Weather on mobile